Time;durP1;ratioP1;P1;durP2;ratioP2;P2;SDS_P1;SDS_P2;PMS_P1;PMS_P2;Temp;Humidity;BMP_temperature;BMP_pressure;BME280_temperature;BME280_humidity;BME280_pressure;Samples;Min_cycle;Max_cycle;Signal;HPM_P1;HPM_P2
2022/09/27 00:00:26;;;;;;;1.20;1.20;;;;;;;;;;5015305;28;20588;-56
2022/09/27 00:02:52;;;;;;;1.20;1.20;;;;;;;;;;5013583;28;20250;-56
2022/09/27 00:05:18;;;;;;;1.10;1.10;;;;;;;;;;5032316;28;20219;-56
2022/09/27 00:07:44;;;;;;;1.20;1.20;;;;;;;;;;5014523;28;20969;-56
2022/09/27 00:10:10;;;;;;;1.20;1.20;;;;;;;;;;5023481;28;20239;-56
2022/09/27 00:12:36;;;;;;;1.10;1.10;;;;;;;;;;5031407;28;20837;-56
2022/09/27 00:15:03;;;;;;;1.20;1.20;;;;;;;;;;5007869;28;20275;-55
2022/09/27 00:17:29;;;;;;;1.10;1.10;;;;;;;;;;5015509;28;20235;-55
2022/09/27 00:19:55;;;;;;;1.00;1.00;;;;;;;;;;5017774;28;21006;-56
2022/09/27 00:22:22;;;;;;;1.10;1.10;;;;;;;;;;5013478;28;20615;-56
2022/09/27 00:24:48;;;;;;;1.30;1.30;;;;;;;;;;4992455;28;20310;-56
2022/09/27 00:27:14;;;;;;;1.30;1.30;;;;;;;;;;5019099;28;20274;-56
2022/09/27 00:29:40;;;;;;;1.30;1.30;;;;;;;;;;5027915;28;20232;-56
2022/09/27 00:32:06;;;;;;;1.30;1.30;;;;;;;;;;5002368;28;20349;-56
2022/09/27 00:34:32;;;;;;;1.23;1.23;;;;;;;;;;5036385;28;20220;-56
2022/09/27 00:36:58;;;;;;;1.00;1.00;;;;;;;;;;5027409;28;20984;-56
2022/09/27 00:39:24;;;;;;;1.30;1.30;;;;;;;;;;5016923;28;20383;-56
2022/09/27 00:41:50;;;;;;;1.27;1.27;;;;;;;;;;5026093;28;20319;-57
2022/09/27 00:44:27;;;;;;;1.20;1.20;;;;;;;;;;5027038;28;20264;-57
2022/09/27 00:47:02;;;;;;;1.20;1.20;;;;;;;;;;5017146;28;21199;-56
2022/09/27 00:49:38;;;;;;;1.17;1.17;;;;;;;;;;5014895;28;20223;-56
2022/09/27 00:52:05;;;;;;;1.33;1.33;;;;;;;;;;5027388;28;20238;-56
2022/09/27 00:54:31;;;;;;;1.30;1.30;;;;;;;;;;5016353;28;20282;-55
2022/09/27 00:56:57;;;;;;;1.50;1.50;;;;;;;;;;5039418;28;20753;-55
2022/09/27 00:59:26;;;;;;;1.17;1.17;;;;;;;;;;5015641;28;20289;-57
2022/09/27 01:01:52;;;;;;;1.30;1.30;;;;;;;;;;5004611;28;20605;-56
2022/09/27 01:04:21;;;;;;;1.40;1.40;;;;;;;;;;5025015;28;20229;-57
2022/09/27 01:06:47;;;;;;;1.40;1.40;;;;;;;;;;5021594;28;20235;-56
2022/09/27 01:09:13;;;;;;;1.50;1.50;;;;;;;;;;5023811;28;20228;-56
2022/09/27 01:11:46;;;;;;;1.50;1.50;;;;;;;;;;5018781;28;21100;-56
2022/09/27 01:14:21;;;;;;;1.30;1.30;;;;;;;;;;5031917;28;20358;-56
2022/09/27 01:16:54;;;;;;;1.50;1.50;;;;;;;;;;5025231;28;20227;-56
2022/09/27 01:19:31;;;;;;;1.67;1.67;;;;;;;;;;5016166;28;20371;-56
2022/09/27 01:21:57;;;;;;;1.60;1.60;;;;;;;;;;5027201;28;20287;-56
2022/09/27 01:24:36;;;;;;;1.60;1.60;;;;;;;;;;5024259;28;20529;-56
2022/09/27 01:27:02;;;;;;;1.60;1.60;;;;;;;;;;5021014;28;20229;-56
2022/09/27 01:29:47;;;;;;;1.87;1.77;;;;;;;;;;5028790;28;20224;-56
2022/09/27 01:32:31;;;;;;;1.50;1.50;;;;;;;;;;5042439;28;20693;-56
2022/09/27 01:35:13;;;;;;;1.30;1.30;;;;;;;;;;5040793;28;20216;-56
2022/09/27 01:37:51;;;;;;;1.50;1.50;;;;;;;;;;5016206;28;20822;-55
2022/09/27 01:40:20;;;;;;;1.90;1.80;;;;;;;;;;5019997;28;20239;-56
2022/09/27 01:42:50;;;;;;;1.50;1.50;;;;;;;;;;5020552;28;20314;-56
2022/09/27 01:45:40;;;;;;;1.57;1.57;;;;;;;;;;5011652;28;20239;-56
2022/09/27 01:48:10;;;;;;;1.90;1.80;;;;;;;;;;5014708;28;20282;-56
2022/09/27 01:50:40;;;;;;;1.40;1.40;;;;;;;;;;5015690;28;20251;-56
2022/09/27 01:53:08;;;;;;;1.57;1.57;;;;;;;;;;5022998;28;20685;-56
2022/09/27 01:55:35;;;;;;;1.40;1.40;;;;;;;;;;5016769;28;20232;-56
2022/09/27 01:58:10;;;;;;;1.40;1.40;;;;;;;;;;5027026;28;20285;-56
2022/09/27 02:00:36;;;;;;;1.47;1.47;;;;;;;;;;5011585;28;20788;-56
2022/09/27 02:03:07;;;;;;;1.50;1.50;;;;;;;;;;5024588;28;20630;-56
2022/09/27 02:05:37;;;;;;;1.30;1.30;;;;;;;;;;5024434;28;23458;-56
2022/09/27 02:08:05;;;;;;;1.57;1.57;;;;;;;;;;5022997;28;20400;-56
2022/09/27 02:10:33;;;;;;;1.40;1.40;;;;;;;;;;5030047;28;20224;-56
2022/09/27 02:13:05;;;;;;;1.40;1.40;;;;;;;;;;5021863;28;20225;-56
2022/09/27 02:15:34;;;;;;;1.57;1.57;;;;;;;;;;5013651;28;20225;-56
2022/09/27 02:18:01;;;;;;;1.40;1.40;;;;;;;;;;5036765;28;20238;-56
2022/09/27 02:20:35;;;;;;;1.50;1.50;;;;;;;;;;5026193;28;20661;-56
2022/09/27 02:23:20;;;;;;;1.53;1.53;;;;;;;;;;5010376;28;20760;-56
2022/09/27 02:25:56;;;;;;;1.53;1.53;;;;;;;;;;5009518;28;20330;-56
2022/09/27 02:28:25;;;;;;;1.60;1.60;;;;;;;;;;5016248;28;20596;-56
2022/09/27 02:30:51;;;;;;;1.50;1.50;;;;;;;;;;5012240;28;20251;-56
2022/09/27 02:33:18;;;;;;;1.43;1.43;;;;;;;;;;5021431;28;20310;-56
2022/09/27 02:35:45;;;;;;;1.50;1.50;;;;;;;;;;5007149;28;20215;-56
2022/09/27 02:38:11;;;;;;;1.43;1.43;;;;;;;;;;5006360;28;20232;-56
2022/09/27 02:40:42;;;;;;;1.50;1.50;;;;;;;;;;5004209;28;20847;-55
2022/09/27 02:43:09;;;;;;;1.20;1.20;;;;;;;;;;5006573;28;20313;-56
2022/09/27 02:45:45;;;;;;;1.60;1.60;;;;;;;;;;5017125;28;20223;-56
2022/09/27 02:48:30;;;;;;;1.50;1.50;;;;;;;;;;5009179;28;20259;-56
2022/09/27 02:51:02;;;;;;;1.47;1.47;;;;;;;;;;5009545;28;20626;-56
2022/09/27 02:53:28;;;;;;;1.50;1.50;;;;;;;;;;5016786;28;20264;-56
2022/09/27 02:56:02;;;;;;;1.50;1.50;;;;;;;;;;4998614;28;20760;-56
2022/09/27 02:58:38;;;;;;;1.60;1.60;;;;;;;;;;5008874;28;20250;-55
2022/09/27 03:01:23;;;;;;;1.83;1.73;;;;;;;;;;5021007;28;20263;-55
2022/09/27 03:04:05;;;;;;;1.60;1.60;;;;;;;;;;4985491;28;20878;-56
2022/09/27 03:06:32;;;;;;;1.60;1.60;;;;;;;;;;5003507;28;20625;-56
2022/09/27 03:08:57;;;;;;;1.80;1.70;;;;;;;;;;5016637;28;20219;-56
2022/09/27 03:11:23;;;;;;;1.50;1.50;;;;;;;;;;5022829;28;20560;-57
2022/09/27 03:13:49;;;;;;;1.63;1.63;;;;;;;;;;5002797;28;20234;-56
2022/09/27 03:16:15;;;;;;;1.60;1.60;;;;;;;;;;5005532;28;20300;-56
2022/09/27 03:18:42;;;;;;;1.90;1.80;;;;;;;;;;5024565;28;20242;-56
2022/09/27 03:21:07;;;;;;;1.60;1.60;;;;;;;;;;5012093;28;20713;-56
2022/09/27 03:23:33;;;;;;;1.60;1.60;;;;;;;;;;5016450;28;20220;-56
2022/09/27 03:25:59;;;;;;;1.77;1.70;;;;;;;;;;5011285;28;20719;-56
2022/09/27 03:28:28;;;;;;;1.60;1.60;;;;;;;;;;5025780;28;20221;-56
2022/09/27 03:30:54;;;;;;;1.50;1.50;;;;;;;;;;5025911;28;20772;-55
2022/09/27 03:33:20;;;;;;;1.60;1.60;;;;;;;;;;5037772;28;20346;-55
2022/09/27 03:35:46;;;;;;;1.43;1.43;;;;;;;;;;5013435;28;20702;-56
2022/09/27 03:38:13;;;;;;;1.60;1.60;;;;;;;;;;4989410;28;20233;-55
2022/09/27 03:40:39;;;;;;;1.50;1.50;;;;;;;;;;4970027;28;20709;-56
2022/09/27 03:43:05;;;;;;;1.60;1.60;;;;;;;;;;4971962;28;20225;-55
2022/09/27 03:45:31;;;;;;;1.80;1.70;;;;;;;;;;4992916;28;20244;-56
2022/09/27 03:47:57;;;;;;;1.30;1.30;;;;;;;;;;4995846;28;20721;-56
2022/09/27 03:50:23;;;;;;;1.70;1.70;;;;;;;;;;4976075;28;20628;-56
2022/09/27 03:52:49;;;;;;;1.60;1.60;;;;;;;;;;4987020;28;20228;-56
2022/09/27 03:55:15;;;;;;;1.80;1.70;;;;;;;;;;4991853;28;20256;-56
2022/09/27 03:57:44;;;;;;;1.90;1.80;;;;;;;;;;4994821;28;20282;-56
2022/09/27 04:00:10;;;;;;;1.80;1.70;;;;;;;;;;5006865;28;20693;-55
2022/09/27 04:02:36;;;;;;;1.90;1.80;;;;;;;;;;5002940;28;20258;-55
2022/09/27 04:05:02;;;;;;;1.53;1.53;;;;;;;;;;5001428;28;20351;-56
2022/09/27 04:07:30;;;;;;;1.73;1.70;;;;;;;;;;5009603;28;20216;-55
2022/09/27 04:09:56;;;;;;;2.00;1.90;;;;;;;;;;5010159;28;21887;-55
2022/09/27 04:12:22;;;;;;;1.90;1.80;;;;;;;;;;5002057;28;20229;-56
2022/09/27 04:14:48;;;;;;;1.60;1.60;;;;;;;;;;4996714;28;20340;-56
2022/09/27 04:17:14;;;;;;;1.57;1.57;;;;;;;;;;4987445;28;20338;-56
2022/09/27 04:19:40;;;;;;;1.43;1.43;;;;;;;;;;4988002;28;20697;-55
2022/09/27 04:22:06;;;;;;;1.87;1.77;;;;;;;;;;4970279;28;20230;-55
2022/09/27 04:24:32;;;;;;;1.43;1.43;;;;;;;;;;4988377;28;20689;-55
2022/09/27 04:26:58;;;;;;;1.20;1.20;;;;;;;;;;4985418;28;20240;-55
2022/09/27 04:29:24;;;;;;;2.10;2.00;;;;;;;;;;4977220;28;20592;-56
2022/09/27 04:31:50;;;;;;;1.50;1.50;;;;;;;;;;4992731;28;20229;-56
2022/09/27 04:34:16;;;;;;;1.43;1.43;;;;;;;;;;4997498;28;20821;-55
2022/09/27 04:36:42;;;;;;;1.40;1.40;;;;;;;;;;4990490;28;20232;-55
2022/09/27 04:39:08;;;;;;;1.50;1.50;;;;;;;;;;4994177;28;20231;-56
2022/09/27 04:41:35;;;;;;;1.57;1.57;;;;;;;;;;5005095;28;20905;-56
2022/09/27 04:44:01;;;;;;;1.40;1.40;;;;;;;;;;5011297;28;20697;-55
2022/09/27 04:46:30;;;;;;;1.40;1.40;;;;;;;;;;4999843;28;20888;-55
2022/09/27 04:48:59;;;;;;;1.30;1.30;;;;;;;;;;4990664;28;20275;-56
2022/09/27 04:51:26;;;;;;;1.47;1.47;;;;;;;;;;4998429;28;20235;-56
2022/09/27 04:53:51;;;;;;;1.60;1.60;;;;;;;;;;5011181;28;20215;-56
2022/09/27 04:56:17;;;;;;;1.70;1.67;;;;;;;;;;4999929;28;20660;-55
2022/09/27 04:58:43;;;;;;;1.57;1.57;;;;;;;;;;5007902;28;20737;-56
2022/09/27 05:01:09;;;;;;;1.60;1.60;;;;;;;;;;5016721;28;20225;-56
2022/09/27 05:03:35;;;;;;;2.20;2.10;;;;;;;;;;5025699;28;20276;-56
2022/09/27 05:06:01;;;;;;;2.10;2.00;;;;;;;;;;5005765;28;20329;-56
2022/09/27 05:08:27;;;;;;;1.97;1.87;;;;;;;;;;4995416;28;20220;-55
2022/09/27 05:10:54;;;;;;;1.60;1.60;;;;;;;;;;5006549;28;20214;-55
2022/09/27 05:13:20;;;;;;;1.60;1.60;;;;;;;;;;5012741;28;20868;-56
2022/09/27 05:15:46;;;;;;;1.73;1.70;;;;;;;;;;5016730;28;20220;-56
2022/09/27 05:18:12;;;;;;;1.53;1.53;;;;;;;;;;5000185;28;21145;-55
2022/09/27 05:20:38;;;;;;;1.40;1.40;;;;;;;;;;4995770;28;20371;-56
2022/09/27 05:23:04;;;;;;;1.40;1.40;;;;;;;;;;5017750;28;20257;-56
2022/09/27 05:25:31;;;;;;;1.80;1.70;;;;;;;;;;5032341;28;20228;-56
2022/09/27 05:27:57;;;;;;;1.50;1.50;;;;;;;;;;5019382;28;20412;-56
2022/09/27 05:30:23;;;;;;;1.30;1.30;;;;;;;;;;5027297;28;20656;-56
2022/09/27 05:32:49;;;;;;;1.40;1.40;;;;;;;;;;5037515;28;20818;-56
2022/09/27 05:35:18;;;;;;;1.60;1.60;;;;;;;;;;5034463;28;20290;-56
2022/09/27 05:37:44;;;;;;;1.50;1.50;;;;;;;;;;5037687;28;20244;-56
2022/09/27 05:40:10;;;;;;;1.20;1.20;;;;;;;;;;5032047;28;21019;-56
2022/09/27 05:42:38;;;;;;;1.53;1.53;;;;;;;;;;5040758;28;20223;-56
2022/09/27 05:45:05;;;;;;;1.50;1.50;;;;;;;;;;5034811;28;20879;-55
2022/09/27 05:47:32;;;;;;;1.20;1.20;;;;;;;;;;5036825;28;20220;-56
2022/09/27 05:49:58;;;;;;;1.30;1.30;;;;;;;;;;5035711;28;20223;-55
2022/09/27 05:52:24;;;;;;;1.40;1.40;;;;;;;;;;5039260;28;20580;-55
2022/09/27 05:54:50;;;;;;;1.30;1.30;;;;;;;;;;5036626;28;20307;-55
2022/09/27 05:57:16;;;;;;;1.30;1.30;;;;;;;;;;5025666;28;20224;-55
2022/09/27 05:59:42;;;;;;;1.47;1.47;;;;;;;;;;5044514;28;20237;-56
2022/09/27 06:02:10;;;;;;;1.30;1.30;;;;;;;;;;5039272;28;20223;-56
2022/09/27 06:04:36;;;;;;;4.93;4.67;;;;;;;;;;5020782;28;20223;-55
2022/09/27 06:07:02;;;;;;;1.10;1.10;;;;;;;;;;5026172;28;20256;-56
2022/09/27 06:09:28;;;;;;;2.03;1.93;;;;;;;;;;5038428;28;20310;-56
2022/09/27 06:11:54;;;;;;;2.10;2.00;;;;;;;;;;5041431;28;20284;-56
2022/09/27 06:14:21;;;;;;;1.33;1.33;;;;;;;;;;5035855;28;20761;-56
2022/09/27 06:16:47;;;;;;;1.30;1.30;;;;;;;;;;5045804;28;20232;-56
2022/09/27 06:19:12;;;;;;;1.40;1.40;;;;;;;;;;5047428;28;20227;-56
2022/09/27 06:21:39;;;;;;;1.50;1.50;;;;;;;;;;5021140;28;20266;-55
2022/09/27 06:24:06;;;;;;;1.27;1.27;;;;;;;;;;5045206;28;20222;-56
2022/09/27 06:26:32;;;;;;;1.30;1.30;;;;;;;;;;5036739;28;20225;-56
2022/09/27 06:28:58;;;;;;;1.30;1.30;;;;;;;;;;5024867;28;20323;-55
2022/09/27 06:31:24;;;;;;;1.13;1.13;;;;;;;;;;5022048;28;20342;-56
2022/09/27 06:33:50;;;;;;;1.10;1.10;;;;;;;;;;5014837;28;20597;-56
2022/09/27 06:36:16;;;;;;;1.30;1.30;;;;;;;;;;5013376;28;20244;-56
2022/09/27 06:38:42;;;;;;;1.40;1.40;;;;;;;;;;5036218;28;20299;-56
2022/09/27 06:41:08;;;;;;;1.40;1.40;;;;;;;;;;5018466;28;20228;-56
2022/09/27 06:43:35;;;;;;;1.30;1.30;;;;;;;;;;5028716;28;20221;-56
2022/09/27 06:46:04;;;;;;;1.50;1.50;;;;;;;;;;5027258;28;20273;-57
2022/09/27 06:48:36;;;;;;;1.30;1.30;;;;;;;;;;5016814;28;20295;-59
2022/09/27 06:51:02;;;;;;;1.50;1.50;;;;;;;;;;5021289;28;20219;-55
2022/09/27 06:53:28;;;;;;;1.60;1.60;;;;;;;;;;5030826;28;20726;-54
2022/09/27 06:55:58;;;;;;;1.57;1.57;;;;;;;;;;5042709;28;20289;-54
2022/09/27 07:01:09;;;;;;;1.20;1.20;;;;;;;;;;5043624;28;20236;-54
2022/09/27 07:03:38;;;;;;;1.57;1.57;;;;;;;;;;5033330;28;20224;-54
2022/09/27 07:06:05;;;;;;;1.60;1.60;;;;;;;;;;5047674;28;20226;-54
2022/09/27 07:08:31;;;;;;;1.53;1.53;;;;;;;;;;5031009;28;20209;-54
2022/09/27 07:11:01;;;;;;;1.60;1.60;;;;;;;;;;5036038;28;20233;-54
2022/09/27 07:13:33;;;;;;;1.50;1.50;;;;;;;;;;5050882;28;20226;-54
2022/09/27 07:15:59;;;;;;;1.77;1.70;;;;;;;;;;5048185;28;20216;-55
2022/09/27 07:18:25;;;;;;;1.50;1.50;;;;;;;;;;5060163;28;20218;-54
2022/09/27 07:20:51;;;;;;;1.37;1.37;;;;;;;;;;5057354;28;20223;-54
2022/09/27 07:23:17;;;;;;;1.60;1.60;;;;;;;;;;5052378;28;20220;-55
2022/09/27 07:25:43;;;;;;;1.97;1.87;;;;;;;;;;5040804;28;20235;-54
2022/09/27 07:28:12;;;;;;;1.90;1.80;;;;;;;;;;5045705;28;20239;-55
2022/09/27 07:30:38;;;;;;;1.60;1.60;;;;;;;;;;5043221;28;20724;-55
2022/09/27 07:33:05;;;;;;;1.90;1.80;;;;;;;;;;5052025;28;20210;-54
2022/09/27 07:35:31;;;;;;;1.70;1.70;;;;;;;;;;5050421;28;20217;-54
2022/09/27 07:37:57;;;;;;;1.50;1.50;;;;;;;;;;5027620;28;20261;-55
2022/09/27 07:40:23;;;;;;;1.60;1.60;;;;;;;;;;5021400;28;20230;-55
2022/09/27 07:42:56;;;;;;;1.73;1.70;;;;;;;;;;5023041;28;20237;-55
2022/09/27 07:45:22;;;;;;;1.90;1.80;;;;;;;;;;5022248;28;20272;-54
2022/09/27 07:47:49;;;;;;;1.60;1.60;;;;;;;;;;5014200;28;20907;-55
2022/09/27 07:50:15;;;;;;;1.63;1.63;;;;;;;;;;5034113;28;20224;-55
2022/09/27 07:52:41;;;;;;;1.60;1.60;;;;;;;;;;5048237;28;20219;-54
2022/09/27 07:55:10;;;;;;;1.70;1.67;;;;;;;;;;5004233;28;20225;-55
2022/09/27 07:57:36;;;;;;;1.50;1.50;;;;;;;;;;5032688;28;20223;-55
2022/09/27 08:00:06;;;;;;;1.50;1.50;;;;;;;;;;5043479;28;20235;-55
2022/09/27 08:02:32;;;;;;;1.27;1.27;;;;;;;;;;5002692;28;20236;-55
2022/09/27 08:04:59;;;;;;;1.17;1.17;;;;;;;;;;5026830;28;20238;-55
2022/09/27 08:07:25;;;;;;;1.10;1.10;;;;;;;;;;5032247;28;20228;-55
2022/09/27 08:09:51;;;;;;;0.90;0.90;;;;;;;;;;5029665;28;20238;-55
2022/09/27 08:12:18;;;;;;;0.70;0.70;;;;;;;;;;5036632;28;20285;-55
2022/09/27 08:14:44;;;;;;;1.00;1.00;;;;;;;;;;5030946;28;20233;-55
2022/09/27 08:17:10;;;;;;;1.07;1.07;;;;;;;;;;5047222;28;20208;-55
2022/09/27 08:19:36;;;;;;;1.20;1.20;;;;;;;;;;5032330;28;20259;-55
2022/09/27 08:22:02;;;;;;;1.03;1.03;;;;;;;;;;5037793;28;20221;-55
2022/09/27 08:24:28;;;;;;;0.90;0.90;;;;;;;;;;5009454;28;20221;-55
2022/09/27 08:26:54;;;;;;;0.70;0.70;;;;;;;;;;5020478;28;20878;-55
2022/09/27 08:29:20;;;;;;;0.70;0.70;;;;;;;;;;5042281;28;20219;-55
2022/09/27 08:31:46;;;;;;;0.90;0.90;;;;;;;;;;5050107;28;20264;-54
2022/09/27 08:34:12;;;;;;;0.83;0.83;;;;;;;;;;5038850;28;20250;-55
2022/09/27 08:36:38;;;;;;;0.80;0.80;;;;;;;;;;5047706;28;20309;-56
2022/09/27 08:39:04;;;;;;;1.00;1.00;;;;;;;;;;5041438;28;20228;-56
2022/09/27 08:41:53;;;;;;;0.87;0.87;;;;;;;;;;5031544;28;20606;-55
2022/09/27 08:44:35;;;;;;;0.93;0.93;;;;;;;;;;5007565;28;20234;-55
2022/09/27 08:47:06;;;;;;;0.87;0.87;;;;;;;;;;5017538;28;20229;-55
2022/09/27 08:49:36;;;;;;;0.80;0.80;;;;;;;;;;5032959;28;20223;-55
2022/09/27 08:52:02;;;;;;;0.83;0.83;;;;;;;;;;5031656;28;20230;-55
2022/09/27 08:54:29;;;;;;;1.00;1.00;;;;;;;;;;5036424;28;20247;-54
2022/09/27 08:57:03;;;;;;;0.87;0.87;;;;;;;;;;5034788;28;20220;-55
2022/09/27 08:59:31;;;;;;;0.80;0.80;;;;;;;;;;5034604;28;20918;-55
2022/09/27 09:01:58;;;;;;;0.90;0.90;;;;;;;;;;5034750;28;20238;-55
2022/09/27 09:04:34;;;;;;;1.00;1.00;;;;;;;;;;5024223;28;20278;-54
2022/09/27 09:07:08;;;;;;;0.90;0.90;;;;;;;;;;5053791;28;20223;-55
2022/09/27 09:09:48;;;;;;;1.00;1.00;;;;;;;;;;5060645;28;20259;-55
2022/09/27 09:15:12;;;;;;;1.00;1.00;;;;;;;;;;5041233;28;20249;-55
2022/09/27 09:17:41;;;;;;;1.00;1.00;;;;;;;;;;5052173;28;20221;-55
2022/09/27 09:20:13;;;;;;;0.87;0.87;;;;;;;;;;5040957;28;20229;-55
2022/09/27 09:22:44;;;;;;;0.90;0.90;;;;;;;;;;5055031;28;20291;-55
2022/09/27 09:25:14;;;;;;;1.00;1.00;;;;;;;;;;5047570;28;20260;-55
2022/09/27 09:27:43;;;;;;;0.80;0.80;;;;;;;;;;5043805;28;20212;-55
2022/09/27 09:30:09;;;;;;;0.80;0.80;;;;;;;;;;5048760;28;20295;-55
2022/09/27 09:32:38;;;;;;;1.10;1.10;;;;;;;;;;5033560;28;20228;-55
2022/09/27 09:35:07;;;;;;;1.00;1.00;;;;;;;;;;5048078;28;20224;-55
2022/09/27 09:37:49;;;;;;;0.80;0.80;;;;;;;;;;5058382;28;20229;-55
2022/09/27 09:40:15;;;;;;;0.60;0.60;;;;;;;;;;5060392;28;20282;-56
2022/09/27 09:42:47;;;;;;;0.80;0.80;;;;;;;;;;5052426;28;20219;-56
2022/09/27 09:45:19;;;;;;;0.83;0.83;;;;;;;;;;5059416;28;20252;-55
2022/09/27 09:48:05;;;;;;;0.70;0.70;;;;;;;;;;5050370;28;20770;-56
2022/09/27 09:50:34;;;;;;;0.90;0.90;;;;;;;;;;5040561;28;20304;-55
2022/09/27 09:53:04;;;;;;;0.90;0.90;;;;;;;;;;5055710;28;20220;-56
2022/09/27 09:55:32;;;;;;;0.80;0.80;;;;;;;;;;5030591;28;20210;-55
2022/09/27 09:58:17;;;;;;;0.70;0.70;;;;;;;;;;5057097;28;20296;-56
2022/09/27 10:00:43;;;;;;;0.70;0.70;;;;;;;;;;5036314;28;20263;-55
2022/09/27 10:03:09;;;;;;;0.80;0.80;;;;;;;;;;5041126;28;20243;-55
2022/09/27 10:05:35;;;;;;;0.87;0.87;;;;;;;;;;5045097;28;20239;-55
2022/09/27 10:08:02;;;;;;;0.90;0.90;;;;;;;;;;5029585;28;20230;-56
2022/09/27 10:10:28;;;;;;;0.70;0.70;;;;;;;;;;4980486;28;20232;-56
2022/09/27 10:12:54;;;;;;;0.90;0.90;;;;;;;;;;5035363;28;20224;-55
2022/09/27 10:15:20;;;;;;;0.80;0.80;;;;;;;;;;5022177;28;20224;-54
2022/09/27 10:17:52;;;;;;;1.00;1.00;;;;;;;;;;5021885;28;20306;-57
2022/09/27 10:20:21;;;;;;;0.80;0.80;;;;;;;;;;5011130;28;20224;-57
2022/09/27 10:22:47;;;;;;;0.80;0.80;;;;;;;;;;5039246;27;20232;-58
2022/09/27 10:25:15;;;;;;;0.90;0.90;;;;;;;;;;5025868;28;20216;-58
2022/09/27 10:27:45;;;;;;;1.10;1.10;;;;;;;;;;5022437;28;20769;-58
2022/09/27 10:30:23;;;;;;;0.90;0.90;;;;;;;;;;5008896;28;20235;-58
2022/09/27 10:32:55;;;;;;;1.10;1.10;;;;;;;;;;5006330;28;20230;-58
2022/09/27 10:35:37;;;;;;;0.90;0.90;;;;;;;;;;5003403;28;20592;-58
2022/09/27 10:38:16;;;;;;;1.00;1.00;;;;;;;;;;5014603;28;20689;-57
2022/09/27 10:40:42;;;;;;;1.00;1.00;;;;;;;;;;5024595;28;20236;-57
2022/09/27 10:43:26;;;;;;;1.20;1.20;;;;;;;;;;5023634;28;20893;-58
2022/09/27 10:45:59;;;;;;;0.90;0.90;;;;;;;;;;5029713;28;20235;-59
2022/09/27 10:48:25;;;;;;;1.00;1.00;;;;;;;;;;5007739;28;20227;-57
2022/09/27 10:50:59;;;;;;;0.80;0.80;;;;;;;;;;5033083;28;20233;-58
2022/09/27 10:53:25;;;;;;;0.70;0.70;;;;;;;;;;5004622;28;20788;-57
2022/09/27 10:55:51;;;;;;;0.70;0.70;;;;;;;;;;5031373;28;20234;-56
2022/09/27 10:58:24;;;;;;;0.70;0.70;;;;;;;;;;5026982;28;20229;-58
2022/09/27 11:01:02;;;;;;;0.80;0.80;;;;;;;;;;5021682;28;20266;-57
2022/09/27 11:03:28;;;;;;;0.90;0.90;;;;;;;;;;5011995;28;20239;-57
2022/09/27 11:05:54;;;;;;;0.90;0.90;;;;;;;;;;4993549;28;20239;-57
2022/09/27 11:08:26;;;;;;;0.70;0.70;;;;;;;;;;5021912;28;20288;-56
2022/09/27 11:11:18;;;;;;;0.80;0.80;;;;;;;;;;5021203;28;20232;-57
2022/09/27 11:14:03;;;;;;;0.90;0.90;;;;;;;;;;5025774;28;20231;-56
2022/09/27 11:16:35;;;;;;;0.60;0.60;;;;;;;;;;5026104;28;20338;-55
2022/09/27 11:19:31;;;;;;;0.80;0.80;;;;;;;;;;5015630;28;20616;-56
2022/09/27 11:22:15;;;;;;;0.70;0.70;;;;;;;;;;4998838;28;20994;-55
2022/09/27 11:24:47;;;;;;;0.80;0.80;;;;;;;;;;5029261;28;20215;-55
2022/09/27 11:27:27;;;;;;;0.60;0.60;;;;;;;;;;5033861;28;20744;-56
2022/09/27 11:30:12;;;;;;;0.80;0.80;;;;;;;;;;5027038;28;20663;-56
2022/09/27 11:32:41;;;;;;;0.90;0.90;;;;;;;;;;5033869;28;20235;-56
2022/09/27 11:35:31;;;;;;;0.80;0.80;;;;;;;;;;5019186;28;20220;-55
2022/09/27 11:38:03;;;;;;;0.90;0.90;;;;;;;;;;4997788;28;20246;-56
2022/09/27 11:40:43;;;;;;;0.70;0.70;;;;;;;;;;5009188;28;20315;-55
2022/09/27 11:43:12;;;;;;;0.90;0.90;;;;;;;;;;5001992;28;20236;-56
2022/09/27 11:45:57;;;;;;;1.00;1.00;;;;;;;;;;4996808;28;20295;-55
2022/09/27 11:48:23;;;;;;;0.90;0.90;;;;;;;;;;5013405;28;20227;-56
2022/09/27 11:51:01;;;;;;;0.80;0.80;;;;;;;;;;4998687;28;20217;-56
2022/09/27 11:53:42;;;;;;;0.97;0.97;;;;;;;;;;4985349;28;20418;-56
2022/09/27 11:56:27;;;;;;;1.20;1.20;;;;;;;;;;5000945;28;20797;-56
2022/09/27 11:58:53;;;;;;;0.90;0.90;;;;;;;;;;5005573;28;20297;-56
2022/09/27 12:01:40;;;;;;;0.90;0.90;;;;;;;;;;5006318;28;20227;-56
2022/09/27 12:04:06;;;;;;;0.70;0.70;;;;;;;;;;4997312;28;20235;-56
2022/09/27 12:06:54;;;;;;;0.80;0.80;;;;;;;;;;5000951;28;20285;-56
2022/09/27 12:09:24;;;;;;;0.70;0.70;;;;;;;;;;4975052;28;20669;-55
2022/09/27 12:11:54;;;;;;;0.80;0.80;;;;;;;;;;5001602;28;20228;-55
2022/09/27 12:14:20;;;;;;;0.80;0.80;;;;;;;;;;5000379;28;20232;-55
2022/09/27 12:16:46;;;;;;;1.00;1.00;;;;;;;;;;5008584;28;20763;-55
2022/09/27 12:19:17;;;;;;;0.90;0.90;;;;;;;;;;5001472;28;20278;-56
2022/09/27 12:21:44;;;;;;;0.80;0.80;;;;;;;;;;4977091;28;20830;-56
2022/09/27 12:24:15;;;;;;;0.70;0.70;;;;;;;;;;4973429;28;20692;-56
2022/09/27 12:26:42;;;;;;;0.70;0.70;;;;;;;;;;5005573;28;20228;-56
2022/09/27 12:29:12;;;;;;;0.73;0.73;;;;;;;;;;4980466;28;20312;-56
2022/09/27 12:31:43;;;;;;;0.70;0.70;;;;;;;;;;4978818;28;20236;-56
2022/09/27 12:34:16;;;;;;;0.70;0.70;;;;;;;;;;4989954;28;20228;-56
2022/09/27 12:36:44;;;;;;;0.70;0.70;;;;;;;;;;4988792;28;20239;-56
2022/09/27 12:39:15;;;;;;;0.80;0.80;;;;;;;;;;4971969;28;20252;-56
2022/09/27 12:41:43;;;;;;;0.70;0.70;;;;;;;;;;4997668;28;20666;-56
2022/09/27 12:44:10;;;;;;;0.70;0.70;;;;;;;;;;4994317;28;20673;-55
2022/09/27 12:46:55;;;;;;;1.00;1.00;;;;;;;;;;4996122;28;20232;-56
2022/09/27 12:49:21;;;;;;;1.10;1.10;;;;;;;;;;4995566;28;20227;-56
2022/09/27 12:51:55;;;;;;;0.73;0.73;;;;;;;;;;4999428;28;20221;-56
2022/09/27 12:54:20;;;;;;;0.70;0.70;;;;;;;;;;4996747;28;20699;-55
2022/09/27 12:56:51;;;;;;;0.90;0.90;;;;;;;;;;5011275;28;20232;-56
2022/09/27 12:59:20;;;;;;;0.70;0.70;;;;;;;;;;4971683;28;20244;-56
2022/09/27 13:02:04;;;;;;;0.97;0.97;;;;;;;;;;4996974;28;20224;-56
2022/09/27 13:04:46;;;;;;;0.60;0.60;;;;;;;;;;5004568;28;20221;-55
2022/09/27 13:07:18;;;;;;;0.70;0.70;;;;;;;;;;4997565;28;20224;-56
2022/09/27 13:09:44;;;;;;;0.70;0.70;;;;;;;;;;5001282;28;20235;-56
2022/09/27 13:12:17;;;;;;;0.80;0.80;;;;;;;;;;5005024;28;20228;-55
2022/09/27 13:15:02;;;;;;;0.70;0.70;;;;;;;;;;4990020;28;20230;-56
2022/09/27 13:17:39;;;;;;;0.70;0.70;;;;;;;;;;4983426;28;21339;-56
2022/09/27 13:20:24;;;;;;;0.70;0.70;;;;;;;;;;4994938;28;20229;-56
2022/09/27 13:22:50;;;;;;;0.90;0.90;;;;;;;;;;4975633;28;20720;-56
2022/09/27 13:25:35;;;;;;;0.70;0.70;;;;;;;;;;4992376;28;20300;-56
2022/09/27 13:28:01;;;;;;;0.90;0.90;;;;;;;;;;4984112;28;20538;-56
2022/09/27 13:30:27;;;;;;;0.70;0.70;;;;;;;;;;4985132;28;20223;-56
2022/09/27 13:33:08;;;;;;;0.83;0.83;;;;;;;;;;5000272;28;21028;-56
2022/09/27 13:35:34;;;;;;;0.90;0.90;;;;;;;;;;4990083;28;20213;-56
2022/09/27 13:38:00;;;;;;;0.70;0.70;;;;;;;;;;5002537;28;20279;-56
2022/09/27 13:40:36;;;;;;;0.90;0.90;;;;;;;;;;5002435;28;20279;-56
2022/09/27 13:43:08;;;;;;;0.90;0.90;;;;;;;;;;5010754;28;20677;-56
2022/09/27 13:45:36;;;;;;;0.70;0.70;;;;;;;;;;4967312;28;20221;-56
2022/09/27 13:48:03;;;;;;;0.80;0.80;;;;;;;;;;4996414;28;20569;-56
2022/09/27 13:50:38;;;;;;;0.93;0.93;;;;;;;;;;5007878;28;20230;-56
2022/09/27 13:53:08;;;;;;;0.80;0.80;;;;;;;;;;5014957;28;20229;-56
2022/09/27 13:55:37;;;;;;;0.70;0.70;;;;;;;;;;5003075;28;20710;-57
2022/09/27 13:58:04;;;;;;;0.70;0.70;;;;;;;;;;5008131;28;20789;-56
2022/09/27 14:00:47;;;;;;;0.90;0.90;;;;;;;;;;4992067;28;20257;-56
2022/09/27 14:06:34;;;;;;;0.70;0.70;;;;;;;;;;4987841;28;20240;-56
2022/09/27 14:09:02;;;;;;;0.70;0.70;;;;;;;;;;4995656;28;20229;-57
2022/09/27 14:11:30;;;;;;;0.80;0.80;;;;;;;;;;4996980;28;20247;-57
2022/09/27 14:13:56;;;;;;;0.93;0.93;;;;;;;;;;4994309;28;20342;-56
2022/09/27 14:16:22;;;;;;;0.90;0.90;;;;;;;;;;5004867;28;20692;-56
2022/09/27 14:18:49;;;;;;;0.80;0.80;;;;;;;;;;5009241;28;20229;-56
2022/09/27 14:21:30;;;;;;;0.90;0.90;;;;;;;;;;5001108;28;20657;-56
2022/09/27 14:24:15;;;;;;;0.90;0.90;;;;;;;;;;5005046;28;20246;-56
2022/09/27 14:26:41;;;;;;;0.70;0.70;;;;;;;;;;5009131;28;20656;-56
2022/09/27 14:29:15;;;;;;;1.00;1.00;;;;;;;;;;4998203;28;20364;-56
2022/09/27 14:31:41;;;;;;;0.80;0.80;;;;;;;;;;5004314;28;20228;-56
2022/09/27 14:34:10;;;;;;;0.80;0.80;;;;;;;;;;4987736;28;20751;-57
2022/09/27 14:39:25;;;;;;;0.70;0.70;;;;;;;;;;5005300;28;20290;-56
2022/09/27 14:41:51;;;;;;;0.73;0.73;;;;;;;;;;4992118;28;20267;-56
2022/09/27 14:44:18;;;;;;;0.70;0.70;;;;;;;;;;5019780;28;20243;-56
2022/09/27 14:46:45;;;;;;;0.90;0.90;;;;;;;;;;4980397;28;20228;-56
2022/09/27 14:49:31;;;;;;;0.80;0.80;;;;;;;;;;5002979;28;20220;-57
2022/09/27 14:51:58;;;;;;;0.80;0.80;;;;;;;;;;4994454;28;20353;-57
2022/09/27 14:54:25;;;;;;;0.80;0.80;;;;;;;;;;5007494;28;20221;-57
2022/09/27 14:56:51;;;;;;;0.70;0.70;;;;;;;;;;5008215;28;20216;-56
2022/09/27 14:59:33;;;;;;;0.70;0.70;;;;;;;;;;5021101;28;20385;-56
2022/09/27 15:02:02;;;;;;;1.10;1.10;;;;;;;;;;5012402;28;20567;-56
2022/09/27 15:04:29;;;;;;;0.80;0.80;;;;;;;;;;5000644;28;20808;-57
2022/09/27 15:06:55;;;;;;;1.00;1.00;;;;;;;;;;5005150;28;20338;-57
2022/09/27 15:09:21;;;;;;;1.00;1.00;;;;;;;;;;5002672;28;20224;-56